createdAt,value
2018-08-13T00:00:04.495Z,17.04
2018-08-13T00:01:04.494Z,16.99
2018-08-13T00:02:04.471Z,16.95
2018-08-13T00:03:04.770Z,16.94
2018-08-13T00:04:04.444Z,16.82
2018-08-13T00:05:04.433Z,16.84
2018-08-13T00:06:04.414Z,16.87
2018-08-13T00:07:04.454Z,16.91
2018-08-13T00:09:04.376Z,16.80
2018-08-13T00:10:04.667Z,16.79
2018-08-13T00:11:04.351Z,16.79
2018-08-13T00:12:04.332Z,16.77
2018-08-13T00:13:05.525Z,16.73
2018-08-13T00:14:04.308Z,16.79
2018-08-13T00:15:04.294Z,16.73
2018-08-13T00:16:04.288Z,16.73
2018-08-13T00:17:04.566Z,16.76
2018-08-13T00:18:04.255Z,16.79
2018-08-13T00:19:04.239Z,16.90
2018-08-13T00:20:04.229Z,16.80
2018-08-13T00:21:04.215Z,16.80
2018-08-13T00:22:04.203Z,16.83
2018-08-13T00:23:04.194Z,16.73
2018-08-13T00:24:04.481Z,16.74
2018-08-13T00:25:04.171Z,16.73
2018-08-13T00:26:04.202Z,16.73
2018-08-13T00:27:04.230Z,16.76
2018-08-13T00:28:04.121Z,16.79
2018-08-13T00:29:04.112Z,16.73
2018-08-13T00:30:04.092Z,16.72
2018-08-13T00:31:04.376Z,16.73
2018-08-13T00:32:04.369Z,16.62
2018-08-13T00:33:04.053Z,16.62
2018-08-13T00:34:04.045Z,16.61
2018-08-13T00:35:04.061Z,16.62
2018-08-13T00:36:04.017Z,16.59
2018-08-13T00:37:04.307Z,16.67
2018-08-13T00:38:04.338Z,16.58
2018-08-13T00:39:04.038Z,16.67
2018-08-13T00:40:04.021Z,16.55
2018-08-13T00:41:03.955Z,16.58
2018-08-13T00:42:03.928Z,16.67
2018-08-13T00:43:04.211Z,16.58
2018-08-13T00:44:03.896Z,16.55
2018-08-13T00:45:03.940Z,16.58
2018-08-13T00:46:03.870Z,16.55
2018-08-13T00:47:03.854Z,16.49
2018-08-13T00:48:03.846Z,16.40
2018-08-13T00:49:04.144Z,16.40
2018-08-13T00:50:03.826Z,16.26
2018-08-13T00:51:03.865Z,16.18
2018-08-13T00:52:03.806Z,16.22
2018-08-13T00:53:03.840Z,16.14
2018-08-13T00:55:04.111Z,16.26
2018-08-13T00:58:03.763Z,16.21
2018-08-13T00:59:03.710Z,16.16
2018-08-13T01:01:04.016Z,16.16
2018-08-13T01:03:03.737Z,16.17
2018-08-13T01:04:03.620Z,16.16
2018-08-13T01:05:03.754Z,16.08
2018-08-13T01:06:03.597Z,16.17
2018-08-13T01:07:03.938Z,16.08
2018-08-13T01:08:03.578Z,16.10
2018-08-13T01:09:03.614Z,16.05
2018-08-13T01:10:03.594Z,15.99
2018-08-13T01:11:03.529Z,15.95
2018-08-13T01:12:03.505Z,15.96
2018-08-13T01:13:03.844Z,15.88
2018-08-13T01:14:03.480Z,15.91
2018-08-13T01:15:03.467Z,15.90
2018-08-13T01:16:03.452Z,16.03
2018-08-13T01:17:03.435Z,15.91
2018-08-13T01:18:03.419Z,15.85
2018-08-13T01:19:03.407Z,15.93
2018-08-13T01:20:03.692Z,15.85
2018-08-13T01:21:03.389Z,15.83
2018-08-13T01:22:03.429Z,15.76
2018-08-13T01:23:03.360Z,15.83
2018-08-13T01:24:03.599Z,15.65
2018-08-13T01:25:03.324Z,15.70
2018-08-13T01:27:03.593Z,15.54
2018-08-13T01:28:03.280Z,15.59
2018-08-13T01:29:03.282Z,15.58
2018-08-13T01:30:03.258Z,15.58
2018-08-13T01:31:03.242Z,15.54
2018-08-13T01:32:03.226Z,15.62
2018-08-13T01:34:03.503Z,15.50
2018-08-13T01:36:03.176Z,15.50
2018-08-13T01:37:03.164Z,15.44
2018-08-13T01:38:03.203Z,15.29
2018-08-13T01:39:03.118Z,15.27
2018-08-13T01:40:03.110Z,15.26
2018-08-13T01:41:03.395Z,15.20
2018-08-13T01:42:03.148Z,15.14
2018-08-13T01:43:03.129Z,15.27
2018-08-13T01:45:03.036Z,15.11
2018-08-13T01:46:03.029Z,15.11
2018-08-13T01:47:03.002Z,15.08
2018-08-13T01:48:03.295Z,15.05
2018-08-13T01:49:02.976Z,14.92
2018-08-13T01:50:02.961Z,14.97
2018-08-13T01:51:02.960Z,14.87
2018-08-13T01:52:02.935Z,14.93
2018-08-13T01:53:02.920Z,14.96
2018-08-13T01:54:02.901Z,14.89
2018-08-13T01:55:03.184Z,14.87
2018-08-13T01:56:02.875Z,14.83
2018-08-13T01:57:02.860Z,14.73
2018-08-13T01:58:02.842Z,14.79
2018-08-13T01:59:02.876Z,14.69
2018-08-13T02:00:02.821Z,14.66
2018-08-13T02:01:02.803Z,14.59
2018-08-13T02:03:03.070Z,14.63
2018-08-13T02:04:02.754Z,14.52
2018-08-13T02:05:02.992Z,14.53
2018-08-13T02:06:02.772Z,14.55
2018-08-13T02:07:02.714Z,14.51
2018-08-13T02:08:02.697Z,14.48
2018-08-13T02:09:02.993Z,14.51
2018-08-13T02:10:02.723Z,14.55
2018-08-13T02:11:02.708Z,14.59
2018-08-13T02:12:02.649Z,14.56
2018-08-13T02:13:02.684Z,14.56
2018-08-13T02:14:02.617Z,14.58
2018-08-13T02:15:02.899Z,14.58
2018-08-13T02:16:02.635Z,14.46
2018-08-13T02:17:02.618Z,14.53
2018-08-13T02:18:02.603Z,14.53
2018-08-13T02:19:02.601Z,14.56
2018-08-13T02:20:02.624Z,14.56
2018-08-13T02:21:02.800Z,14.53
2018-08-13T02:22:02.495Z,14.53
2018-08-13T02:23:02.473Z,14.55
2018-08-13T02:24:02.793Z,14.52
2018-08-13T02:25:02.446Z,14.63
2018-08-13T02:26:02.424Z,14.59
2018-08-13T02:28:02.411Z,14.52
2018-08-13T02:29:02.446Z,14.51
2018-08-13T02:30:02.687Z,14.51
2018-08-13T02:31:02.372Z,14.55
2018-08-13T02:32:02.353Z,14.55
2018-08-13T02:33:02.778Z,14.48
2018-08-13T02:34:02.310Z,14.58
2018-08-13T02:35:02.363Z,14.53
2018-08-13T02:37:02.418Z,14.49
2018-08-13T02:38:02.245Z,14.55
2018-08-13T02:39:02.880Z,14.45
2018-08-13T02:40:02.223Z,14.55
2018-08-13T02:41:02.205Z,14.52
2018-08-13T02:42:02.193Z,14.52
2018-08-13T02:43:02.163Z,14.53
2018-08-13T02:44:02.158Z,14.53
2018-08-13T02:45:02.436Z,14.52
2018-08-13T02:46:02.118Z,14.49
2018-08-13T02:47:02.101Z,14.52
2018-08-13T02:48:02.089Z,14.49
2018-08-13T02:49:02.104Z,14.51
2018-08-13T02:50:02.058Z,14.49
2018-08-13T02:51:02.045Z,14.34
2018-08-13T02:52:02.331Z,14.38
2018-08-13T02:53:02.017Z,14.36
2018-08-13T02:54:02.207Z,14.40
2018-08-13T02:57:01.962Z,14.48
2018-08-13T03:00:01.918Z,14.53
2018-08-13T03:01:01.894Z,14.48
2018-08-13T03:02:01.881Z,14.44
2018-08-13T03:03:01.876Z,14.46
2018-08-13T03:04:01.928Z,14.46
2018-08-13T03:05:02.139Z,14.48
2018-08-13T03:06:02.251Z,14.45
2018-08-13T03:07:01.813Z,14.48
2018-08-13T03:08:01.789Z,14.48
2018-08-13T03:09:01.798Z,14.41
2018-08-13T03:10:01.764Z,14.45
2018-08-13T03:11:01.747Z,14.45
2018-08-13T03:12:01.724Z,14.45
2018-08-13T03:13:02.010Z,14.46
2018-08-13T03:14:01.695Z,14.46
2018-08-13T03:15:01.677Z,14.48
2018-08-13T03:16:01.687Z,14.40
2018-08-13T03:17:01.666Z,14.45
2018-08-13T03:18:01.697Z,14.45
2018-08-13T03:19:01.623Z,14.49
2018-08-13T03:20:02.017Z,14.49
2018-08-13T03:21:01.603Z,14.49
2018-08-13T03:22:01.628Z,14.46
2018-08-13T03:23:01.628Z,14.31
2018-08-13T03:24:01.551Z,14.26
2018-08-13T03:25:01.728Z,14.27
2018-08-13T03:27:01.799Z,14.28
2018-08-13T03:28:01.482Z,14.27
2018-08-13T03:29:01.465Z,14.28
2018-08-13T03:30:01.465Z,14.30
2018-08-13T03:31:01.432Z,14.22
2018-08-13T03:32:01.425Z,14.23
2018-08-13T03:33:01.410Z,14.26
2018-08-13T03:34:01.692Z,14.28
2018-08-13T03:35:01.672Z,14.34
2018-08-13T03:36:01.355Z,14.33
2018-08-13T03:37:01.351Z,14.21
2018-08-13T03:38:01.323Z,14.28
2018-08-13T03:39:01.310Z,14.26
2018-08-13T03:40:01.701Z,14.22
2018-08-13T03:41:01.280Z,14.30
2018-08-13T03:42:02.014Z,14.22
2018-08-13T03:43:01.264Z,14.23
2018-08-13T03:44:01.235Z,14.28
2018-08-13T03:45:01.224Z,14.28
2018-08-13T03:46:01.509Z,14.34
2018-08-13T03:47:01.195Z,14.36
2018-08-13T03:49:01.194Z,14.28
2018-08-13T03:50:01.162Z,14.30
2018-08-13T03:52:01.114Z,14.31
2018-08-13T03:54:01.112Z,14.28
2018-08-13T03:55:01.067Z,14.21
2018-08-13T03:56:01.062Z,14.21
2018-08-13T03:58:01.229Z,14.27
2018-08-13T03:59:01.008Z,14.27
2018-08-13T04:00:01.296Z,14.13
2018-08-13T04:01:00.980Z,14.26
2018-08-13T04:02:00.954Z,14.26
2018-08-13T04:03:00.954Z,14.19
2018-08-13T04:04:00.935Z,14.22
2018-08-13T04:05:00.919Z,14.18
2018-08-13T04:06:01.266Z,14.15
2018-08-13T04:07:00.892Z,14.18
2018-08-13T04:08:00.865Z,14.18
2018-08-13T04:09:00.866Z,14.19
2018-08-13T04:10:00.851Z,14.19
2018-08-13T04:12:00.805Z,14.21
2018-08-13T04:13:01.127Z,14.18
2018-08-13T04:14:00.770Z,14.22
2018-08-13T04:15:00.766Z,14.21
2018-08-13T04:16:00.792Z,14.09
2018-08-13T04:17:00.747Z,14.04
2018-08-13T04:18:00.760Z,14.12
2018-08-13T04:19:00.782Z,14.00
2018-08-13T04:20:01.065Z,14.04
2018-08-13T04:21:00.804Z,13.93
2018-08-13T04:22:00.716Z,13.88
2018-08-13T04:24:00.627Z,13.76
2018-08-13T04:25:00.712Z,13.76
2018-08-13T04:26:00.591Z,13.78
2018-08-13T04:27:00.875Z,13.90
2018-08-13T04:28:00.621Z,13.88
2018-08-13T04:29:00.564Z,14.01
2018-08-13T04:30:00.533Z,13.93
2018-08-13T04:31:00.609Z,14.03
2018-08-13T04:32:00.553Z,14.15
2018-08-13T04:33:00.509Z,14.05
2018-08-13T04:34:01.103Z,14.09
2018-08-13T04:35:00.450Z,14.18
2018-08-13T04:36:00.517Z,14.21
2018-08-13T04:37:00.446Z,14.26
2018-08-13T04:38:00.496Z,14.31
2018-08-13T04:39:00.535Z,14.34
2018-08-13T04:40:00.533Z,14.30
2018-08-13T04:41:00.666Z,14.36
2018-08-13T04:42:01.603Z,14.38
2018-08-13T04:43:00.340Z,14.33
2018-08-13T04:44:00.319Z,14.49
2018-08-13T04:46:00.409Z,14.44
2018-08-13T04:47:00.326Z,14.46
2018-08-13T04:49:00.619Z,14.55
2018-08-13T04:50:00.225Z,14.46
2018-08-13T04:51:00.268Z,14.48
2018-08-13T04:52:00.205Z,14.53
2018-08-13T04:54:00.220Z,14.56
2018-08-13T04:56:00.425Z,14.53
2018-08-13T04:57:04.420Z,14.58
2018-08-13T05:01:00.082Z,14.74
2018-08-13T05:02:00.106Z,14.73
2018-08-13T05:03:00.098Z,14.73
2018-08-13T05:04:01.516Z,14.82
2018-08-13T05:05:00.070Z,14.92
2018-08-13T05:06:00.061Z,14.87
2018-08-13T05:07:00.017Z,14.97
2018-08-13T05:09:00.331Z,14.92
2018-08-13T05:10:00.168Z,15.10
2018-08-13T05:11:00.200Z,15.10
2018-08-13T05:11:59.912Z,15.08
2018-08-13T05:12:59.874Z,15.07
2018-08-13T05:15:59.828Z,15.10
2018-08-13T05:17:59.797Z,15.23
2018-08-13T05:18:59.781Z,15.23
2018-08-13T05:19:59.818Z,15.23
2018-08-13T05:20:59.748Z,15.29
2018-08-13T05:21:59.737Z,15.30
2018-08-13T05:23:00.069Z,15.40
2018-08-13T05:24:00.936Z,15.44
2018-08-13T05:25:03.065Z,15.43
2018-08-13T05:25:59.680Z,15.60
2018-08-13T05:27:59.813Z,15.63
2018-08-13T05:29:04.816Z,15.69
2018-08-13T05:30:00.107Z,15.69
2018-08-13T05:30:59.806Z,15.83
2018-08-13T05:31:59.722Z,15.80
2018-08-13T05:32:59.590Z,15.77
2018-08-13T05:33:59.570Z,15.91
2018-08-13T05:34:59.603Z,15.96
2018-08-13T05:35:59.837Z,16.05
2018-08-13T05:36:59.551Z,16.05
2018-08-13T05:37:59.515Z,16.10
2018-08-13T05:38:59.513Z,16.10
2018-08-13T05:39:59.481Z,16.14
2018-08-13T05:40:59.778Z,16.24
2018-08-13T05:41:59.748Z,16.10
2018-08-13T05:42:59.585Z,16.13
2018-08-13T05:43:59.642Z,16.28
2018-08-13T05:44:59.647Z,16.26
2018-08-13T05:48:11.445Z,16.42
2018-08-13T05:51:59.660Z,16.70
2018-08-13T05:52:59.457Z,16.65
2018-08-13T05:54:00.805Z,16.76
2018-08-13T05:54:59.946Z,16.77
2018-08-13T05:55:59.481Z,16.77
2018-08-13T05:56:59.252Z,16.80
2018-08-13T05:57:59.225Z,16.92
2018-08-13T05:58:59.378Z,16.90
2018-08-13T05:59:59.655Z,16.98
2018-08-13T06:00:59.397Z,17.02
2018-08-13T06:01:59.671Z,17.04
2018-08-13T06:02:59.333Z,17.04
2018-08-13T06:03:59.157Z,17.17
2018-08-13T06:04:59.144Z,17.25
2018-08-13T06:05:59.180Z,17.25
2018-08-13T06:06:59.146Z,17.43
2018-08-13T06:07:59.147Z,17.47
2018-08-13T06:08:59.401Z,17.38
2018-08-13T06:09:59.121Z,17.39
2018-08-13T06:10:59.086Z,17.57
2018-08-13T06:11:59.121Z,17.72
2018-08-13T06:14:00.594Z,18.05
2018-08-13T06:15:59.769Z,18.30
2018-08-13T06:16:58.970Z,18.43
2018-08-13T06:17:59.042Z,18.51
2018-08-13T06:18:59.077Z,18.58
2018-08-13T06:19:58.937Z,18.74
2018-08-13T06:21:00.415Z,18.88
2018-08-13T06:21:59.462Z,18.94
2018-08-13T06:22:59.199Z,19.12
2018-08-13T06:24:59.969Z,19.50
2018-08-13T06:25:58.854Z,19.64
2018-08-13T06:26:58.848Z,19.68
2018-08-13T06:27:58.836Z,19.75
2018-08-13T06:28:58.843Z,19.77
2018-08-13T06:29:59.121Z,19.84
2018-08-13T06:30:58.802Z,19.96
2018-08-13T06:31:58.775Z,20.02
2018-08-13T06:32:58.844Z,20.05
2018-08-13T06:33:58.792Z,19.96
2018-08-13T06:34:58.741Z,20.00
2018-08-13T06:35:58.789Z,19.99
2018-08-13T06:36:59.083Z,19.97
2018-08-13T06:37:58.773Z,20.04
2018-08-13T06:40:58.673Z,20.07
2018-08-13T06:41:58.874Z,20.19
2018-08-13T06:42:58.945Z,20.27
2018-08-13T06:43:58.645Z,20.42
2018-08-13T06:44:58.626Z,20.55
2018-08-13T06:45:58.618Z,20.50
2018-08-13T06:46:58.659Z,20.67
2018-08-13T06:47:58.590Z,20.80
2018-08-13T06:48:58.892Z,20.77
2018-08-13T06:49:58.569Z,20.88
2018-08-13T06:50:58.551Z,21.16
2018-08-13T06:51:58.532Z,21.16
2018-08-13T06:53:58.565Z,21.44
2018-08-13T06:54:58.503Z,21.53
2018-08-13T06:55:58.792Z,21.55
2018-08-13T06:56:58.480Z,21.56
2018-08-13T06:59:58.453Z,21.84
2018-08-13T07:00:59.852Z,21.91
2018-08-13T07:01:58.715Z,22.03
2018-08-13T07:03:58.445Z,22.27
2018-08-13T07:04:58.391Z,22.33
2018-08-13T07:05:58.575Z,22.56
2018-08-13T07:08:38.131Z,22.61
2018-08-13T07:08:58.536Z,22.67
2018-08-13T07:09:58.327Z,22.66
2018-08-13T07:10:58.312Z,22.70
2018-08-13T07:15:58.469Z,22.98
2018-08-13T07:16:58.488Z,22.98
2018-08-13T07:17:58.297Z,22.99
2018-08-13T07:18:58.231Z,23.14
2018-08-13T07:19:58.515Z,23.23
2018-08-13T07:20:58.211Z,23.17
2018-08-13T07:21:58.208Z,23.13
2018-08-13T07:22:58.496Z,23.06
2018-08-13T07:23:58.176Z,23.18
2018-08-13T07:24:58.181Z,23.18
2018-08-13T07:25:58.162Z,23.17
2018-08-13T07:26:58.443Z,23.31
2018-08-13T07:27:58.531Z,23.60
2018-08-13T07:28:58.129Z,23.70
2018-08-13T07:29:58.115Z,23.71
2018-08-13T07:30:58.159Z,23.82
2018-08-13T07:31:58.092Z,23.97
2018-08-13T07:32:58.095Z,24.01
2018-08-13T07:33:58.508Z,24.15
2018-08-13T07:34:58.060Z,24.29
2018-08-13T07:35:58.161Z,24.25
2018-08-13T07:36:58.042Z,24.34
2018-08-13T07:37:58.027Z,24.52
2018-08-13T07:38:58.029Z,24.60
2018-08-13T07:39:58.012Z,24.63
2018-08-13T07:40:58.305Z,24.70
2018-08-13T07:41:58.247Z,24.94
2018-08-13T07:42:57.982Z,25.03
2018-08-13T07:43:58.612Z,25.14
2018-08-13T07:44:58.579Z,25.33
2018-08-13T07:45:57.950Z,25.37
2018-08-13T07:47:58.300Z,25.52
2018-08-13T07:49:57.918Z,25.83
2018-08-13T07:50:57.903Z,26.00
2018-08-13T07:51:58.360Z,26.07
2018-08-13T07:52:57.885Z,26.24
2018-08-13T07:53:57.922Z,26.36
2018-08-13T07:54:58.772Z,26.53
2018-08-13T07:55:57.868Z,26.53
2018-08-13T07:56:57.848Z,26.43
2018-08-13T07:57:57.902Z,26.33
2018-08-13T07:58:57.838Z,26.39
2018-08-13T07:59:57.851Z,26.36
2018-08-13T08:00:57.825Z,26.67
2018-08-13T08:01:58.110Z,26.31
2018-08-13T08:02:57.796Z,26.38
2018-08-13T08:03:58.037Z,26.58
2018-08-13T08:04:57.793Z,26.67
2018-08-13T08:05:57.780Z,26.65
2018-08-13T08:06:57.766Z,26.56
2018-08-13T08:07:57.754Z,26.38
2018-08-13T08:08:58.045Z,26.67
2018-08-13T08:09:57.786Z,26.95
2018-08-13T08:10:57.740Z,26.98
2018-08-13T08:12:57.777Z,27.47
2018-08-13T08:13:57.712Z,27.53
2018-08-13T08:14:58.069Z,27.76
2018-08-13T08:16:57.729Z,28.13
2018-08-13T08:17:58.942Z,28.15
2018-08-13T08:19:57.658Z,27.69
2018-08-13T08:21:58.006Z,27.94
2018-08-13T08:22:58.809Z,28.01
2018-08-13T08:23:57.683Z,28.09
2018-08-13T08:24:57.685Z,28.17
2018-08-13T08:25:57.641Z,28.49
2018-08-13T08:26:57.672Z,28.72
2018-08-13T08:27:57.677Z,28.94
2018-08-13T08:28:58.204Z,28.75
2018-08-13T08:29:58.194Z,28.79
2018-08-13T08:30:58.189Z,28.74
2018-08-13T08:31:57.577Z,28.49
2018-08-13T08:32:57.572Z,28.64
2018-08-13T08:33:57.869Z,28.49
2018-08-13T08:34:59.343Z,28.68
2018-08-13T08:35:57.610Z,28.62
2018-08-13T08:36:57.536Z,28.59
2018-08-13T08:37:57.532Z,28.61
2018-08-13T08:38:57.529Z,28.31
2018-08-13T08:39:57.616Z,28.38
2018-08-13T08:40:57.882Z,28.53
2018-08-13T08:42:57.499Z,28.72
2018-08-13T08:43:57.553Z,28.35
2018-08-13T08:44:57.477Z,28.52
2018-08-13T08:45:57.541Z,28.74
2018-08-13T08:46:57.813Z,29.02
2018-08-13T08:47:57.466Z,29.19
2018-08-13T08:48:57.455Z,29.21
2018-08-13T08:49:57.448Z,29.00
2018-08-13T08:50:57.442Z,29.02
2018-08-13T08:53:57.931Z,28.90
2018-08-13T08:54:57.426Z,29.18
2018-08-13T08:55:58.022Z,29.34
2018-08-13T08:56:58.835Z,29.44
2018-08-13T08:58:23.344Z,29.19
2018-08-13T09:00:57.695Z,29.04
2018-08-13T09:02:57.363Z,29.21
2018-08-13T09:03:57.369Z,28.81
2018-08-13T09:04:57.376Z,28.93
2018-08-13T09:05:57.442Z,29.31
2018-08-13T09:07:00.389Z,29.34
2018-08-13T09:07:57.651Z,29.49
2018-08-13T09:08:57.389Z,29.66
2018-08-13T09:09:57.332Z,29.84
2018-08-13T09:10:57.324Z,29.93
2018-08-13T09:11:58.933Z,29.76
2018-08-13T09:12:57.334Z,30.03
2018-08-13T09:13:57.366Z,29.66
2018-08-13T09:14:57.656Z,29.80
2018-08-13T09:15:57.317Z,30.13
2018-08-13T09:17:30.501Z,29.76
2018-08-13T09:17:57.535Z,29.99
2018-08-13T09:19:22.993Z,30.15
2018-08-13T09:19:57.278Z,30.11
2018-08-13T09:20:57.359Z,29.93
2018-08-13T09:21:57.631Z,30.14
2018-08-13T09:22:57.293Z,29.87
2018-08-13T09:23:57.260Z,29.66
2018-08-13T09:24:57.313Z,29.86
2018-08-13T09:25:58.676Z,29.98
2018-08-13T09:26:57.332Z,30.21
2018-08-13T09:27:57.241Z,30.45
2018-08-13T09:28:57.544Z,30.74
2018-08-13T09:29:57.247Z,30.82
2018-08-13T09:30:57.227Z,31.01
2018-08-13T09:31:57.320Z,31.07
2018-08-13T09:32:57.899Z,31.24
2018-08-13T09:34:57.428Z,30.56
2018-08-13T09:35:57.520Z,30.17
2018-08-13T09:36:57.218Z,30.00
2018-08-13T09:37:57.270Z,29.86
2018-08-13T09:38:57.207Z,29.74
2018-08-13T09:40:30.410Z,29.40
2018-08-13T09:40:58.712Z,28.96
2018-08-13T09:41:58.682Z,29.21
2018-08-13T09:42:58.157Z,29.63
2018-08-13T09:43:57.198Z,30.40
2018-08-13T09:44:57.183Z,31.04
2018-08-13T09:45:57.179Z,31.59
2018-08-13T09:50:58.069Z,30.18
2018-08-13T09:52:57.207Z,30.60
2018-08-13T09:53:57.199Z,30.37
2018-08-13T09:54:57.139Z,30.11
2018-08-13T09:55:57.136Z,29.83
2018-08-13T09:56:58.345Z,30.20
2018-08-13T09:57:57.136Z,30.65
2018-08-13T09:58:57.124Z,30.52
2018-08-13T09:59:57.143Z,30.74
2018-08-13T10:00:57.122Z,30.77
2018-08-13T10:01:57.119Z,30.82
2018-08-13T10:02:57.435Z,30.88
2018-08-13T10:03:57.148Z,31.45
2018-08-13T10:04:57.160Z,31.75
2018-08-13T10:06:57.715Z,30.73
2018-08-13T10:07:57.699Z,30.85
2018-08-13T10:08:57.599Z,30.80
2018-08-13T10:10:57.170Z,31.15
2018-08-13T10:11:57.085Z,31.11
2018-08-13T10:12:57.132Z,30.80
2018-08-13T10:13:57.075Z,30.74
2018-08-13T10:14:57.393Z,30.39
2018-08-13T10:15:57.334Z,30.03
2018-08-13T10:16:57.208Z,29.70
2018-08-13T10:18:05.394Z,29.71
2018-08-13T10:18:57.318Z,29.44
2018-08-13T10:19:57.450Z,29.33
2018-08-13T10:21:06.437Z,29.33
2018-08-13T10:21:57.456Z,29.07
2018-08-13T10:22:57.102Z,29.09
2018-08-13T10:23:57.043Z,29.17
2018-08-13T10:25:57.028Z,28.90
2018-08-13T10:26:57.026Z,28.93
2018-08-13T10:27:57.320Z,28.96
2018-08-13T10:28:57.167Z,28.98
2018-08-13T10:29:57.075Z,28.90
2018-08-13T10:30:57.286Z,28.77
2018-08-13T10:31:57.133Z,28.65
2018-08-13T10:33:57.338Z,28.50
2018-08-13T10:38:56.973Z,28.54
2018-08-13T10:39:57.637Z,28.28
2018-08-13T10:40:58.733Z,28.15
2018-08-13T10:41:57.632Z,27.98
2018-08-13T10:42:57.086Z,28.00
2018-08-13T10:43:56.970Z,27.88
2018-08-13T10:44:57.488Z,27.85
2018-08-13T10:45:56.947Z,27.95
2018-08-13T10:46:57.037Z,28.01
2018-08-13T10:47:57.283Z,28.00
2018-08-13T10:48:56.906Z,28.00
2018-08-13T10:49:57.004Z,27.95
2018-08-13T10:50:56.923Z,27.85
2018-08-13T10:51:56.932Z,28.00
2018-08-13T10:52:56.951Z,28.03
2018-08-13T10:54:58.080Z,28.12
2018-08-13T10:56:56.907Z,28.05
2018-08-13T10:57:56.856Z,27.76
2018-08-13T10:58:56.863Z,27.73
2018-08-13T10:59:56.848Z,27.75
2018-08-13T11:00:57.447Z,27.61
2018-08-13T11:01:58.597Z,27.64
2018-08-13T11:02:56.918Z,27.49
2018-08-13T11:04:03.096Z,27.49
2018-08-13T11:04:56.808Z,27.47
2018-08-13T11:05:57.008Z,27.30
2018-08-13T11:07:56.798Z,27.27
2018-08-13T11:08:57.149Z,27.26
2018-08-13T11:09:56.785Z,27.12
2018-08-13T11:11:04.355Z,27.07
2018-08-13T11:11:56.872Z,27.05
2018-08-13T11:12:56.972Z,26.95
2018-08-13T11:13:57.467Z,27.00
2018-08-13T11:14:58.256Z,26.89
2018-08-13T11:15:58.457Z,26.83
2018-08-13T11:16:56.847Z,26.70
2018-08-13T11:17:57.413Z,26.61
2018-08-13T11:19:56.766Z,26.36
2018-08-13T11:20:56.705Z,26.33
2018-08-13T11:22:57.422Z,26.33
2018-08-13T11:24:02.967Z,26.28
2018-08-13T11:24:57.100Z,26.33
2018-08-13T11:26:00.069Z,26.38
2018-08-13T11:26:56.965Z,26.26
2018-08-13T11:27:57.252Z,26.26
2018-08-13T11:28:57.562Z,26.30
2018-08-13T11:29:56.716Z,26.20
2018-08-13T11:30:58.190Z,26.08
2018-08-13T11:31:56.631Z,26.15
2018-08-13T11:32:56.618Z,26.00
2018-08-13T11:33:56.811Z,26.04
2018-08-13T11:34:57.540Z,25.96
2018-08-13T11:35:56.847Z,25.98
2018-08-13T11:37:56.772Z,25.96
2018-08-13T11:38:56.582Z,25.92
2018-08-13T11:39:56.551Z,25.93
2018-08-13T11:40:56.841Z,25.93
2018-08-13T11:41:56.587Z,25.85
2018-08-13T11:43:56.521Z,25.93
2018-08-13T11:44:56.516Z,25.88
2018-08-13T11:45:56.509Z,25.78
2018-08-13T11:46:56.845Z,25.81
2018-08-13T11:48:56.886Z,25.66
2018-08-13T11:49:56.460Z,25.64
2018-08-13T11:51:56.506Z,25.45
2018-08-13T11:52:56.492Z,25.41
2018-08-13T11:53:56.782Z,25.41
2018-08-13T11:55:56.413Z,25.30
2018-08-13T11:56:56.402Z,25.18
2018-08-13T11:57:56.389Z,25.11
2018-08-13T11:59:56.729Z,24.82
2018-08-13T12:00:57.376Z,24.89
2018-08-13T12:01:56.457Z,24.90
2018-08-13T12:02:56.670Z,24.90
2018-08-13T12:03:57.367Z,24.84
2018-08-13T12:04:57.313Z,24.84
2018-08-13T12:05:57.233Z,24.79
2018-08-13T12:06:56.371Z,24.86
2018-08-13T12:07:56.313Z,24.82
2018-08-13T12:08:56.325Z,24.81
2018-08-13T12:09:56.454Z,24.82
2018-08-13T12:14:56.794Z,24.82
2018-08-13T12:16:56.228Z,24.84
2018-08-13T12:17:56.313Z,24.82
2018-08-13T12:18:57.621Z,24.78
2018-08-13T12:19:56.192Z,24.79
2018-08-13T12:20:56.238Z,24.68
2018-08-13T12:21:56.770Z,24.78
2018-08-13T12:22:56.442Z,24.70
2018-08-13T12:23:56.527Z,24.63
2018-08-13T12:24:57.133Z,24.71
2018-08-13T12:25:57.227Z,24.55
2018-08-13T12:26:56.806Z,24.59
2018-08-13T12:27:56.126Z,24.60
2018-08-13T12:28:56.483Z,24.51
2018-08-13T12:29:56.104Z,24.47
2018-08-13T12:30:56.102Z,24.38
2018-08-13T12:31:56.091Z,24.31
2018-08-13T12:32:56.082Z,24.33
2018-08-13T12:33:56.116Z,24.36
2018-08-13T12:39:56.510Z,24.08
2018-08-13T12:40:59.044Z,24.06
2018-08-13T12:41:56.017Z,24.00
2018-08-13T12:42:56.293Z,23.91
2018-08-13T12:43:56.044Z,23.81
2018-08-13T12:44:55.986Z,23.86
2018-08-13T12:45:56.032Z,23.66
2018-08-13T12:46:56.047Z,23.71
2018-08-13T12:47:56.033Z,23.54
2018-08-13T12:48:55.997Z,23.42
2018-08-13T12:49:56.289Z,23.34
2018-08-13T12:50:55.992Z,23.29
2018-08-13T12:51:56.018Z,23.21
2018-08-13T12:52:55.937Z,23.21
2018-08-13T12:53:55.903Z,23.18
2018-08-13T12:54:55.878Z,23.17
2018-08-13T12:55:55.874Z,23.21
2018-08-13T12:56:56.158Z,22.99
2018-08-13T12:57:56.006Z,23.04
2018-08-13T12:58:55.927Z,23.11
2018-08-13T12:59:56.086Z,23.04
2018-08-13T13:01:55.988Z,23.15
2018-08-13T13:02:55.787Z,23.10
2018-08-13T13:03:56.090Z,23.17
2018-08-13T13:04:55.811Z,23.08
2018-08-13T13:05:56.511Z,23.14
2018-08-13T13:06:55.957Z,23.07
2018-08-13T13:08:55.830Z,22.98
2018-08-13T13:09:55.723Z,23.01
2018-08-13T13:12:55.918Z,22.85
2018-08-13T13:13:55.694Z,22.80
2018-08-13T13:14:55.676Z,22.73
2018-08-13T13:15:55.711Z,22.73
2018-08-13T13:16:56.158Z,22.74
2018-08-13T13:17:55.643Z,22.78
2018-08-13T13:18:55.636Z,22.73
2018-08-13T13:19:55.642Z,22.74
2018-08-13T13:21:55.664Z,22.86
2018-08-13T13:22:55.894Z,22.83
2018-08-13T13:23:55.900Z,22.91
2018-08-13T13:24:55.590Z,22.85
2018-08-13T13:25:55.567Z,22.89
2018-08-13T13:26:55.558Z,22.91
2018-08-13T13:27:55.620Z,22.91
2018-08-13T13:28:55.548Z,22.96
2018-08-13T13:29:55.880Z,22.91
2018-08-13T13:30:55.534Z,22.91
2018-08-13T13:31:55.508Z,22.83
2018-08-13T13:32:55.503Z,22.81
2018-08-13T13:33:55.476Z,22.81
2018-08-13T13:34:55.537Z,22.70
2018-08-13T13:35:56.281Z,22.68
2018-08-13T13:36:58.548Z,22.76
2018-08-13T13:37:55.504Z,22.70
2018-08-13T13:38:55.597Z,22.64
2018-08-13T13:39:55.418Z,22.67
2018-08-13T13:41:55.749Z,22.74
2018-08-13T13:42:55.468Z,22.73
2018-08-13T13:43:55.462Z,22.66
2018-08-13T13:44:55.407Z,22.66
2018-08-13T13:45:55.630Z,22.76
2018-08-13T13:46:55.359Z,22.74
2018-08-13T13:47:55.721Z,22.83
2018-08-13T13:48:55.352Z,22.89
2018-08-13T13:49:55.374Z,22.93
2018-08-13T13:50:55.522Z,22.92
2018-08-13T13:51:55.649Z,22.92
2018-08-13T13:53:28.546Z,22.95
2018-08-13T13:54:31.907Z,23.08
2018-08-13T13:54:58.438Z,23.03
2018-08-13T13:58:14.069Z,23.01
2018-08-13T13:58:59.259Z,23.17
2018-08-13T13:59:42.899Z,23.13
2018-08-13T14:01:13.262Z,23.11
2018-08-13T14:02:05.513Z,23.06
2018-08-13T14:02:40.055Z,23.06
2018-08-13T14:03:40.126Z,23.13
2018-08-13T14:04:40.796Z,23.08
2018-08-13T14:05:39.800Z,23.07
2018-08-13T14:06:39.790Z,23.08
2018-08-13T14:07:39.788Z,23.08
2018-08-13T14:08:39.768Z,23.14
2018-08-13T14:11:39.734Z,23.18
2018-08-13T14:12:39.732Z,23.13
2018-08-13T14:13:39.782Z,23.21
2018-08-13T14:14:39.722Z,23.10
2018-08-13T14:15:40.369Z,23.13
2018-08-13T14:16:40.079Z,23.13
2018-08-13T14:17:39.756Z,23.18
2018-08-13T14:18:39.685Z,23.07
2018-08-13T14:19:39.721Z,23.06
2018-08-13T14:20:39.645Z,23.14
2018-08-13T14:21:40.004Z,23.17
2018-08-13T14:22:52.390Z,23.29
2018-08-13T14:24:40.434Z,23.51
2018-08-13T14:25:39.692Z,23.49
2018-08-13T14:31:24.944Z,24.07
2018-08-13T14:32:59.509Z,24.11
2018-08-13T14:33:26.620Z,24.01
2018-08-13T14:34:26.235Z,23.89
2018-08-13T14:35:25.403Z,23.91
2018-08-13T14:38:09.922Z,23.88
2018-08-13T14:39:09.794Z,23.86
2018-08-13T14:40:09.704Z,23.85
2018-08-13T14:41:09.684Z,23.85
2018-08-13T14:42:09.670Z,23.85
2018-08-13T14:43:09.976Z,23.79
2018-08-13T14:44:09.703Z,23.79
2018-08-13T14:45:09.953Z,23.73
2018-08-13T14:46:09.829Z,23.71
2018-08-13T14:47:09.621Z,23.59
2018-08-13T14:48:09.674Z,23.61
2018-08-13T14:49:09.914Z,23.61
2018-08-13T14:50:09.655Z,23.56
2018-08-13T14:51:09.695Z,23.71